sensor_id;sensor_type;location;lat;lon;timestamp;P1;durP1;ratioP1;P2;durP2;ratioP2
10009;SDS011;5044;48.652;9.250;2022-09-12T00:02:14;4.47;;;4.07;;
10009;SDS011;5044;48.652;9.250;2022-09-12T00:04:43;6.90;;;4.82;;
10009;SDS011;5044;48.652;9.250;2022-09-12T00:07:10;6.57;;;4.90;;
10009;SDS011;5044;48.652;9.250;2022-09-12T00:09:37;5.68;;;4.63;;
10009;SDS011;5044;48.652;9.250;2022-09-12T00:12:06;4.90;;;3.88;;
10009;SDS011;5044;48.652;9.250;2022-09-12T00:14:33;4.82;;;3.55;;
10009;SDS011;5044;48.652;9.250;2022-09-12T00:17:00;6.00;;;3.35;;
10009;SDS011;5044;48.652;9.250;2022-09-12T00:19:28;6.80;;;4.28;;
10009;SDS011;5044;48.652;9.250;2022-09-12T00:21:58;4.05;;;3.65;;
10009;SDS011;5044;48.652;9.250;2022-09-12T00:24:25;6.55;;;4.55;;
10009;SDS011;5044;48.652;9.250;2022-09-12T00:26:52;3.50;;;3.20;;
10009;SDS011;5044;48.652;9.250;2022-09-12T00:29:19;5.32;;;4.07;;
10009;SDS011;5044;48.652;9.250;2022-09-12T00:31:47;3.92;;;3.33;;
10009;SDS011;5044;48.652;9.250;2022-09-12T00:34:14;3.83;;;3.13;;
10009;SDS011;5044;48.652;9.250;2022-09-12T00:36:40;3.30;;;3.00;;
10009;SDS011;5044;48.652;9.250;2022-09-12T00:39:09;4.05;;;2.97;;
10009;SDS011;5044;48.652;9.250;2022-09-12T00:41:40;2.90;;;2.60;;
10009;SDS011;5044;48.652;9.250;2022-09-12T00:47:14;4.25;;;3.20;;
10009;SDS011;5044;48.652;9.250;2022-09-12T00:52:14;3.70;;;3.35;;
10009;SDS011;5044;48.652;9.250;2022-09-12T00:54:48;5.38;;;3.20;;
10009;SDS011;5044;48.652;9.250;2022-09-12T00:57:19;4.05;;;2.90;;
10009;SDS011;5044;48.652;9.250;2022-09-12T00:59:49;3.53;;;3.22;;
10009;SDS011;5044;48.652;9.250;2022-09-12T01:02:20;4.88;;;3.80;;
10009;SDS011;5044;48.652;9.250;2022-09-12T01:04:47;7.85;;;5.28;;
10009;SDS011;5044;48.652;9.250;2022-09-12T01:07:15;10.63;;;4.32;;
10009;SDS011;5044;48.652;9.250;2022-09-12T01:09:43;5.82;;;4.53;;
10009;SDS011;5044;48.652;9.250;2022-09-12T01:12:12;4.47;;;4.00;;
10009;SDS011;5044;48.652;9.250;2022-09-12T01:14:40;4.35;;;3.35;;
10009;SDS011;5044;48.652;9.250;2022-09-12T01:17:10;6.40;;;2.40;;
10009;SDS011;5044;48.652;9.250;2022-09-12T01:22:35;5.38;;;2.97;;
10009;SDS011;5044;48.652;9.250;2022-09-12T01:25:27;4.53;;;3.13;;
10009;SDS011;5044;48.652;9.250;2022-09-12T01:28:04;4.80;;;2.97;;
10009;SDS011;5044;48.652;9.250;2022-09-12T01:30:46;17.33;;;4.72;;
10009;SDS011;5044;48.652;9.250;2022-09-12T01:33:20;6.07;;;4.38;;
10009;SDS011;5044;48.652;9.250;2022-09-12T01:36:01;4.28;;;3.72;;
10009;SDS011;5044;48.652;9.250;2022-09-12T01:38:37;3.78;;;3.13;;
10009;SDS011;5044;48.652;9.250;2022-09-12T01:41:08;7.75;;;4.65;;
10009;SDS011;5044;48.652;9.250;2022-09-12T01:43:40;4.05;;;2.97;;
10009;SDS011;5044;48.652;9.250;2022-09-12T01:46:14;3.80;;;3.15;;
10009;SDS011;5044;48.652;9.250;2022-09-12T01:48:43;6.03;;;3.88;;
10009;SDS011;5044;48.652;9.250;2022-09-12T01:51:15;8.02;;;5.47;;
10009;SDS011;5044;48.652;9.250;2022-09-12T01:53:47;4.30;;;3.58;;
10009;SDS011;5044;48.652;9.250;2022-09-12T01:56:20;2.88;;;2.60;;
10009;SDS011;5044;48.652;9.250;2022-09-12T01:58:51;4.03;;;3.10;;
10009;SDS011;5044;48.652;9.250;2022-09-12T02:01:25;3.28;;;2.80;;
10009;SDS011;5044;48.652;9.250;2022-09-12T02:03:56;5.15;;;3.83;;
10009;SDS011;5044;48.652;9.250;2022-09-12T02:06:30;4.28;;;3.63;;
10009;SDS011;5044;48.652;9.250;2022-09-12T02:09:02;6.20;;;3.90;;
10009;SDS011;5044;48.652;9.250;2022-09-12T02:11:33;6.30;;;3.95;;
10009;SDS011;5044;48.652;9.250;2022-09-12T02:14:02;5.05;;;3.90;;
10009;SDS011;5044;48.652;9.250;2022-09-12T02:16:36;5.43;;;4.22;;
10009;SDS011;5044;48.652;9.250;2022-09-12T02:19:08;4.90;;;3.60;;
10009;SDS011;5044;48.652;9.250;2022-09-12T02:21:38;9.02;;;4.68;;
10009;SDS011;5044;48.652;9.250;2022-09-12T02:24:09;5.03;;;4.10;;
10009;SDS011;5044;48.652;9.250;2022-09-12T02:26:40;4.47;;;3.63;;
10009;SDS011;5044;48.652;9.250;2022-09-12T02:29:13;7.10;;;5.28;;
10009;SDS011;5044;48.652;9.250;2022-09-12T02:31:43;6.43;;;3.78;;
10009;SDS011;5044;48.652;9.250;2022-09-12T02:34:14;5.60;;;3.40;;
10009;SDS011;5044;48.652;9.250;2022-09-12T02:36:54;3.65;;;3.10;;
10009;SDS011;5044;48.652;9.250;2022-09-12T02:39:30;8.25;;;5.13;;
10009;SDS011;5044;48.652;9.250;2022-09-12T02:41:58;6.57;;;5.25;;
10009;SDS011;5044;48.652;9.250;2022-09-12T02:44:27;4.85;;;4.07;;
10009;SDS011;5044;48.652;9.250;2022-09-12T02:46:57;5.78;;;4.75;;
10009;SDS011;5044;48.652;9.250;2022-09-12T02:49:28;6.25;;;5.15;;
10009;SDS011;5044;48.652;9.250;2022-09-12T02:51:55;4.72;;;3.78;;
10009;SDS011;5044;48.652;9.250;2022-09-12T02:54:21;5.40;;;4.00;;
10009;SDS011;5044;48.652;9.250;2022-09-12T02:56:50;7.07;;;3.88;;
10009;SDS011;5044;48.652;9.250;2022-09-12T02:59:18;4.25;;;3.78;;
10009;SDS011;5044;48.652;9.250;2022-09-12T03:01:55;4.25;;;3.55;;
10009;SDS011;5044;48.652;9.250;2022-09-12T03:04:43;5.03;;;3.75;;
10009;SDS011;5044;48.652;9.250;2022-09-12T03:07:31;3.30;;;2.95;;
10009;SDS011;5044;48.652;9.250;2022-09-12T03:10:09;4.43;;;3.72;;
10009;SDS011;5044;48.652;9.250;2022-09-12T03:12:50;5.65;;;4.60;;
10009;SDS011;5044;48.652;9.250;2022-09-12T03:15:29;7.78;;;4.78;;
10009;SDS011;5044;48.652;9.250;2022-09-12T03:18:10;7.40;;;5.10;;
10009;SDS011;5044;48.652;9.250;2022-09-12T03:23:21;6.35;;;5.30;;
10009;SDS011;5044;48.652;9.250;2022-09-12T03:25:52;5.18;;;4.03;;
10009;SDS011;5044;48.652;9.250;2022-09-12T03:28:22;7.37;;;5.37;;
10009;SDS011;5044;48.652;9.250;2022-09-12T03:30:52;4.47;;;3.83;;
10009;SDS011;5044;48.652;9.250;2022-09-12T03:33:22;6.43;;;5.18;;
10009;SDS011;5044;48.652;9.250;2022-09-12T03:35:50;5.65;;;4.30;;
10009;SDS011;5044;48.652;9.250;2022-09-12T03:38:18;7.00;;;5.22;;
10009;SDS011;5044;48.652;9.250;2022-09-12T03:40:45;8.45;;;6.25;;
10009;SDS011;5044;48.652;9.250;2022-09-12T03:43:12;8.52;;;6.20;;
10009;SDS011;5044;48.652;9.250;2022-09-12T03:45:38;7.50;;;5.47;;
10009;SDS011;5044;48.652;9.250;2022-09-12T03:48:05;9.00;;;5.70;;
10009;SDS011;5044;48.652;9.250;2022-09-12T03:50:34;10.48;;;6.32;;
10009;SDS011;5044;48.652;9.250;2022-09-12T03:53:01;6.78;;;4.82;;
10009;SDS011;5044;48.652;9.250;2022-09-12T03:55:28;8.52;;;6.07;;
10009;SDS011;5044;48.652;9.250;2022-09-12T03:57:56;8.82;;;6.95;;
10009;SDS011;5044;48.652;9.250;2022-09-12T04:00:22;9.30;;;6.18;;
10009;SDS011;5044;48.652;9.250;2022-09-12T04:02:52;9.27;;;6.20;;
10009;SDS011;5044;48.652;9.250;2022-09-12T04:05:20;6.40;;;4.65;;
10009;SDS011;5044;48.652;9.250;2022-09-12T04:07:48;5.00;;;3.85;;
10009;SDS011;5044;48.652;9.250;2022-09-12T04:10:15;7.35;;;4.05;;
10009;SDS011;5044;48.652;9.250;2022-09-12T04:12:43;4.30;;;3.90;;
10009;SDS011;5044;48.652;9.250;2022-09-12T04:15:09;5.38;;;4.20;;
10009;SDS011;5044;48.652;9.250;2022-09-12T04:17:36;5.70;;;4.00;;
10009;SDS011;5044;48.652;9.250;2022-09-12T04:20:04;4.47;;;3.53;;
10009;SDS011;5044;48.652;9.250;2022-09-12T04:22:31;6.00;;;4.40;;
10009;SDS011;5044;48.652;9.250;2022-09-12T04:25:00;5.68;;;4.10;;
10009;SDS011;5044;48.652;9.250;2022-09-12T04:27:27;4.63;;;3.60;;
10009;SDS011;5044;48.652;9.250;2022-09-12T04:29:54;5.13;;;3.10;;
10009;SDS011;5044;48.652;9.250;2022-09-12T04:32:21;4.22;;;3.60;;
10009;SDS011;5044;48.652;9.250;2022-09-12T04:34:48;4.53;;;3.75;;
10009;SDS011;5044;48.652;9.250;2022-09-12T04:37:16;4.30;;;3.17;;
10009;SDS011;5044;48.652;9.250;2022-09-12T04:39:43;3.58;;;2.88;;
10009;SDS011;5044;48.652;9.250;2022-09-12T04:42:15;3.17;;;2.58;;
10009;SDS011;5044;48.652;9.250;2022-09-12T04:44:42;4.78;;;2.50;;
10009;SDS011;5044;48.652;9.250;2022-09-12T04:47:09;3.17;;;2.55;;
10009;SDS011;5044;48.652;9.250;2022-09-12T04:49:35;3.25;;;2.55;;
10009;SDS011;5044;48.652;9.250;2022-09-12T04:52:02;2.55;;;2.10;;
10009;SDS011;5044;48.652;9.250;2022-09-12T04:54:29;4.68;;;3.55;;
10009;SDS011;5044;48.652;9.250;2022-09-12T04:56:56;4.22;;;3.72;;
10009;SDS011;5044;48.652;9.250;2022-09-12T04:59:25;5.13;;;3.60;;
10009;SDS011;5044;48.652;9.250;2022-09-12T05:01:52;3.33;;;2.53;;
10009;SDS011;5044;48.652;9.250;2022-09-12T05:04:19;3.63;;;2.90;;
10009;SDS011;5044;48.652;9.250;2022-09-12T05:06:46;3.40;;;3.03;;
10009;SDS011;5044;48.652;9.250;2022-09-12T05:09:13;2.83;;;2.42;;
10009;SDS011;5044;48.652;9.250;2022-09-12T05:11:42;2.72;;;2.20;;
10009;SDS011;5044;48.652;9.250;2022-09-12T05:14:10;3.58;;;2.60;;
10009;SDS011;5044;48.652;9.250;2022-09-12T05:16:39;3.15;;;2.22;;
10009;SDS011;5044;48.652;9.250;2022-09-12T05:19:06;2.47;;;2.28;;
10009;SDS011;5044;48.652;9.250;2022-09-12T05:21:33;2.63;;;2.22;;
10009;SDS011;5044;48.652;9.250;2022-09-12T05:24:00;2.72;;;2.28;;
10009;SDS011;5044;48.652;9.250;2022-09-12T05:26:29;2.55;;;2.25;;
10009;SDS011;5044;48.652;9.250;2022-09-12T05:28:56;2.10;;;1.90;;
10009;SDS011;5044;48.652;9.250;2022-09-12T05:31:23;2.63;;;2.10;;
10009;SDS011;5044;48.652;9.250;2022-09-12T05:33:53;3.58;;;2.50;;
10009;SDS011;5044;48.652;9.250;2022-09-12T05:36:21;4.68;;;3.03;;
10009;SDS011;5044;48.652;9.250;2022-09-12T05:38:49;3.95;;;3.25;;
10009;SDS011;5044;48.652;9.250;2022-09-12T05:41:17;7.20;;;2.97;;
10009;SDS011;5044;48.652;9.250;2022-09-12T05:43:45;7.32;;;3.60;;
10009;SDS011;5044;48.652;9.250;2022-09-12T05:46:16;4.43;;;3.00;;
10009;SDS011;5044;48.652;9.250;2022-09-12T05:48:46;5.13;;;2.88;;
10009;SDS011;5044;48.652;9.250;2022-09-12T05:51:16;3.65;;;3.13;;
10009;SDS011;5044;48.652;9.250;2022-09-12T05:53:45;3.08;;;2.58;;
10009;SDS011;5044;48.652;9.250;2022-09-12T05:56:14;6.38;;;3.45;;
10009;SDS011;5044;48.652;9.250;2022-09-12T05:58:42;4.10;;;2.63;;
10009;SDS011;5044;48.652;9.250;2022-09-12T06:01:11;4.85;;;2.85;;
10009;SDS011;5044;48.652;9.250;2022-09-12T06:03:40;3.70;;;2.53;;
10009;SDS011;5044;48.652;9.250;2022-09-12T06:06:08;3.30;;;2.97;;
10009;SDS011;5044;48.652;9.250;2022-09-12T06:08:39;4.25;;;3.35;;
10009;SDS011;5044;48.652;9.250;2022-09-12T06:11:07;3.65;;;3.00;;
10009;SDS011;5044;48.652;9.250;2022-09-12T06:13:36;3.13;;;2.60;;
10009;SDS011;5044;48.652;9.250;2022-09-12T06:16:04;4.50;;;2.70;;
10009;SDS011;5044;48.652;9.250;2022-09-12T06:18:33;4.72;;;2.42;;
10009;SDS011;5044;48.652;9.250;2022-09-12T06:21:03;3.53;;;2.67;;
10009;SDS011;5044;48.652;9.250;2022-09-12T06:23:31;3.05;;;2.28;;
10009;SDS011;5044;48.652;9.250;2022-09-12T06:26:00;2.75;;;2.15;;
10009;SDS011;5044;48.652;9.250;2022-09-12T06:28:27;4.47;;;3.35;;
10009;SDS011;5044;48.652;9.250;2022-09-12T06:30:59;3.80;;;3.15;;
10009;SDS011;5044;48.652;9.250;2022-09-12T06:33:28;3.15;;;2.60;;
10009;SDS011;5044;48.652;9.250;2022-09-12T06:35:55;4.00;;;2.67;;
10009;SDS011;5044;48.652;9.250;2022-09-12T06:38:28;5.22;;;2.70;;
10009;SDS011;5044;48.652;9.250;2022-09-12T06:40:55;2.83;;;2.55;;
10009;SDS011;5044;48.652;9.250;2022-09-12T06:43:23;2.92;;;2.55;;
10009;SDS011;5044;48.652;9.250;2022-09-12T06:45:50;3.83;;;2.78;;
10009;SDS011;5044;48.652;9.250;2022-09-12T06:48:18;3.03;;;2.58;;
10009;SDS011;5044;48.652;9.250;2022-09-12T06:50:53;4.38;;;3.10;;
10009;SDS011;5044;48.652;9.250;2022-09-12T06:53:20;3.15;;;2.70;;
10009;SDS011;5044;48.652;9.250;2022-09-12T06:55:53;4.55;;;3.22;;
10009;SDS011;5044;48.652;9.250;2022-09-12T06:58:21;6.65;;;3.17;;
10009;SDS011;5044;48.652;9.250;2022-09-12T07:00:49;2.88;;;2.53;;
10009;SDS011;5044;48.652;9.250;2022-09-12T07:03:16;3.75;;;2.63;;
10009;SDS011;5044;48.652;9.250;2022-09-12T07:05:43;3.90;;;3.50;;
10009;SDS011;5044;48.652;9.250;2022-09-12T07:08:11;4.13;;;2.90;;
10009;SDS011;5044;48.652;9.250;2022-09-12T07:10:38;8.88;;;3.38;;
10009;SDS011;5044;48.652;9.250;2022-09-12T07:13:05;4.57;;;2.88;;
10009;SDS011;5044;48.652;9.250;2022-09-12T07:15:33;4.47;;;3.95;;
10009;SDS011;5044;48.652;9.250;2022-09-12T07:18:02;6.93;;;3.42;;
10009;SDS011;5044;48.652;9.250;2022-09-12T07:20:29;4.97;;;3.72;;
10009;SDS011;5044;48.652;9.250;2022-09-12T07:22:57;5.03;;;3.72;;
10009;SDS011;5044;48.652;9.250;2022-09-12T07:25:24;5.80;;;4.30;;
10009;SDS011;5044;48.652;9.250;2022-09-12T07:27:51;6.55;;;4.50;;
10009;SDS011;5044;48.652;9.250;2022-09-12T07:30:19;4.88;;;3.65;;
10009;SDS011;5044;48.652;9.250;2022-09-12T07:32:46;3.67;;;3.05;;
10009;SDS011;5044;48.652;9.250;2022-09-12T07:35:17;3.50;;;3.03;;
10009;SDS011;5044;48.652;9.250;2022-09-12T07:37:44;5.10;;;3.78;;
10009;SDS011;5044;48.652;9.250;2022-09-12T07:40:11;4.03;;;3.60;;
10009;SDS011;5044;48.652;9.250;2022-09-12T07:42:38;3.70;;;2.97;;
10009;SDS011;5044;48.652;9.250;2022-09-12T07:45:05;4.40;;;3.70;;
10009;SDS011;5044;48.652;9.250;2022-09-12T07:47:33;5.28;;;3.75;;
10009;SDS011;5044;48.652;9.250;2022-09-12T07:50:00;4.40;;;3.45;;
10009;SDS011;5044;48.652;9.250;2022-09-12T07:52:28;5.07;;;3.72;;
10009;SDS011;5044;48.652;9.250;2022-09-12T07:54:55;3.20;;;2.53;;
10009;SDS011;5044;48.652;9.250;2022-09-12T07:57:22;3.97;;;3.53;;
10009;SDS011;5044;48.652;9.250;2022-09-12T07:59:49;4.15;;;3.05;;
10009;SDS011;5044;48.652;9.250;2022-09-12T08:02:16;3.40;;;2.97;;
10009;SDS011;5044;48.652;9.250;2022-09-12T08:04:45;3.70;;;2.88;;
10009;SDS011;5044;48.652;9.250;2022-09-12T08:07:12;5.90;;;3.30;;
10009;SDS011;5044;48.652;9.250;2022-09-12T08:09:40;4.30;;;3.17;;
10009;SDS011;5044;48.652;9.250;2022-09-12T08:12:18;3.08;;;2.40;;
10009;SDS011;5044;48.652;9.250;2022-09-12T08:14:45;4.13;;;3.05;;
10009;SDS011;5044;48.652;9.250;2022-09-12T08:17:12;3.88;;;2.90;;
10009;SDS011;5044;48.652;9.250;2022-09-12T08:19:39;3.63;;;2.95;;
10009;SDS011;5044;48.652;9.250;2022-09-12T08:22:06;3.13;;;2.67;;
10009;SDS011;5044;48.652;9.250;2022-09-12T08:24:33;3.38;;;3.08;;
10009;SDS011;5044;48.652;9.250;2022-09-12T08:27:02;5.78;;;2.78;;
10009;SDS011;5044;48.652;9.250;2022-09-12T08:29:29;3.30;;;2.90;;
10009;SDS011;5044;48.652;9.250;2022-09-12T08:31:55;3.28;;;2.85;;
10009;SDS011;5044;48.652;9.250;2022-09-12T08:34:22;4.95;;;3.50;;
10009;SDS011;5044;48.652;9.250;2022-09-12T08:36:50;4.40;;;3.35;;
10009;SDS011;5044;48.652;9.250;2022-09-12T08:39:18;2.75;;;2.45;;
10009;SDS011;5044;48.652;9.250;2022-09-12T08:41:46;3.53;;;2.90;;
10009;SDS011;5044;48.652;9.250;2022-09-12T08:44:19;3.30;;;2.70;;
10009;SDS011;5044;48.652;9.250;2022-09-12T08:47:02;3.00;;;2.25;;
10009;SDS011;5044;48.652;9.250;2022-09-12T08:49:44;3.00;;;2.28;;
10009;SDS011;5044;48.652;9.250;2022-09-12T08:52:20;5.32;;;2.30;;
10009;SDS011;5044;48.652;9.250;2022-09-12T08:54:50;2.65;;;2.33;;
10009;SDS011;5044;48.652;9.250;2022-09-12T08:57:18;2.28;;;1.90;;
10009;SDS011;5044;48.652;9.250;2022-09-12T08:59:47;2.60;;;2.40;;
10009;SDS011;5044;48.652;9.250;2022-09-12T09:02:30;4.40;;;3.15;;
10009;SDS011;5044;48.652;9.250;2022-09-12T09:05:14;2.92;;;2.30;;
10009;SDS011;5044;48.652;9.250;2022-09-12T09:10:46;4.78;;;1.70;;
10009;SDS011;5044;48.652;9.250;2022-09-12T09:13:22;2.00;;;1.70;;
10009;SDS011;5044;48.652;9.250;2022-09-12T09:16:18;3.67;;;2.20;;
10009;SDS011;5044;48.652;9.250;2022-09-12T09:18:52;3.30;;;2.83;;
10009;SDS011;5044;48.652;9.250;2022-09-12T09:21:22;2.85;;;2.55;;
10009;SDS011;5044;48.652;9.250;2022-09-12T09:23:55;3.80;;;2.92;;
10009;SDS011;5044;48.652;9.250;2022-09-12T09:26:27;7.85;;;3.40;;
10009;SDS011;5044;48.652;9.250;2022-09-12T09:28:59;6.00;;;2.92;;
10009;SDS011;5044;48.652;9.250;2022-09-12T09:31:32;3.38;;;2.78;;
10009;SDS011;5044;48.652;9.250;2022-09-12T09:34:04;2.40;;;2.20;;
10009;SDS011;5044;48.652;9.250;2022-09-12T09:36:39;2.92;;;2.40;;
10009;SDS011;5044;48.652;9.250;2022-09-12T09:39:15;9.30;;;4.57;;
10009;SDS011;5044;48.652;9.250;2022-09-12T09:41:55;6.30;;;4.60;;
10009;SDS011;5044;48.652;9.250;2022-09-12T09:44:28;3.22;;;2.58;;
10009;SDS011;5044;48.652;9.250;2022-09-12T09:46:58;5.43;;;3.22;;
10009;SDS011;5044;48.652;9.250;2022-09-12T09:49:26;4.10;;;3.05;;
10009;SDS011;5044;48.652;9.250;2022-09-12T09:51:56;8.18;;;3.05;;
10009;SDS011;5044;48.652;9.250;2022-09-12T09:54:25;4.30;;;3.10;;
10009;SDS011;5044;48.652;9.250;2022-09-12T09:56:56;2.78;;;2.47;;
10009;SDS011;5044;48.652;9.250;2022-09-12T09:59:24;3.30;;;2.55;;
10009;SDS011;5044;48.652;9.250;2022-09-12T10:01:53;2.50;;;2.30;;
10009;SDS011;5044;48.652;9.250;2022-09-12T10:04:24;2.63;;;1.80;;
10009;SDS011;5044;48.652;9.250;2022-09-12T10:06:52;1.95;;;1.73;;
10009;SDS011;5044;48.652;9.250;2022-09-12T10:09:22;2.60;;;2.00;;
10009;SDS011;5044;48.652;9.250;2022-09-12T10:11:51;3.63;;;2.10;;
10009;SDS011;5044;48.652;9.250;2022-09-12T10:14:27;3.00;;;2.13;;
10009;SDS011;5044;48.652;9.250;2022-09-12T10:16:56;4.97;;;2.00;;
10009;SDS011;5044;48.652;9.250;2022-09-12T10:19:32;4.07;;;1.65;;
10009;SDS011;5044;48.652;9.250;2022-09-12T10:22:00;2.53;;;1.52;;
10009;SDS011;5044;48.652;9.250;2022-09-12T10:24:29;3.78;;;1.95;;
10009;SDS011;5044;48.652;9.250;2022-09-12T10:27:05;4.32;;;1.63;;
10009;SDS011;5044;48.652;9.250;2022-09-12T10:29:38;5.20;;;2.67;;
10009;SDS011;5044;48.652;9.250;2022-09-12T10:32:11;2.80;;;1.65;;
10009;SDS011;5044;48.652;9.250;2022-09-12T10:34:50;3.20;;;1.80;;
10009;SDS011;5044;48.652;9.250;2022-09-12T10:37:22;4.00;;;2.42;;
10009;SDS011;5044;48.652;9.250;2022-09-12T10:39:51;4.22;;;1.30;;
10009;SDS011;5044;48.652;9.250;2022-09-12T10:45:24;3.80;;;1.60;;
10009;SDS011;5044;48.652;9.250;2022-09-12T10:47:53;2.95;;;1.80;;
10009;SDS011;5044;48.652;9.250;2022-09-12T10:50:25;1.45;;;1.27;;
10009;SDS011;5044;48.652;9.250;2022-09-12T10:52:54;2.55;;;1.17;;
10009;SDS011;5044;48.652;9.250;2022-09-12T10:55:37;2.20;;;1.70;;
10009;SDS011;5044;48.652;9.250;2022-09-12T10:58:12;1.48;;;1.30;;
10009;SDS011;5044;48.652;9.250;2022-09-12T11:00:54;2.38;;;1.33;;
10009;SDS011;5044;48.652;9.250;2022-09-12T11:03:34;2.30;;;1.40;;
10009;SDS011;5044;48.652;9.250;2022-09-12T11:06:16;1.38;;;1.15;;
10009;SDS011;5044;48.652;9.250;2022-09-12T11:08:54;1.75;;;1.15;;
10009;SDS011;5044;48.652;9.250;2022-09-12T11:11:43;3.88;;;1.25;;
10009;SDS011;5044;48.652;9.250;2022-09-12T11:14:26;2.53;;;1.48;;
10009;SDS011;5044;48.652;9.250;2022-09-12T11:17:05;1.55;;;1.40;;
10009;SDS011;5044;48.652;9.250;2022-09-12T11:20:00;2.95;;;1.20;;
10009;SDS011;5044;48.652;9.250;2022-09-12T11:22:44;1.35;;;1.25;;
10009;SDS011;5044;48.652;9.250;2022-09-12T11:25:30;1.30;;;1.17;;
10009;SDS011;5044;48.652;9.250;2022-09-12T11:28:17;1.25;;;1.15;;
10009;SDS011;5044;48.652;9.250;2022-09-12T11:30:54;1.77;;;1.30;;
10009;SDS011;5044;48.652;9.250;2022-09-12T11:33:36;1.55;;;1.10;;
10009;SDS011;5044;48.652;9.250;2022-09-12T11:36:10;1.10;;;1.00;;
10009;SDS011;5044;48.652;9.250;2022-09-12T11:38:56;1.45;;;0.93;;
10009;SDS011;5044;48.652;9.250;2022-09-12T11:41:29;1.85;;;0.80;;
10009;SDS011;5044;48.652;9.250;2022-09-12T11:44:01;2.65;;;0.73;;
10009;SDS011;5044;48.652;9.250;2022-09-12T11:46:35;0.98;;;0.88;;
10009;SDS011;5044;48.652;9.250;2022-09-12T11:49:05;1.73;;;0.80;;
10009;SDS011;5044;48.652;9.250;2022-09-12T11:51:42;1.23;;;0.85;;
10009;SDS011;5044;48.652;9.250;2022-09-12T11:54:15;0.82;;;0.82;;
10009;SDS011;5044;48.652;9.250;2022-09-12T11:56:48;5.35;;;0.90;;
10009;SDS011;5044;48.652;9.250;2022-09-12T11:59:25;2.30;;;0.90;;
10009;SDS011;5044;48.652;9.250;2022-09-12T12:01:57;1.75;;;0.75;;
10009;SDS011;5044;48.652;9.250;2022-09-12T12:04:28;2.72;;;0.98;;
10009;SDS011;5044;48.652;9.250;2022-09-12T12:07:02;1.10;;;0.85;;
10009;SDS011;5044;48.652;9.250;2022-09-12T12:09:33;0.80;;;0.60;;
10009;SDS011;5044;48.652;9.250;2022-09-12T12:12:00;0.95;;;0.73;;
10009;SDS011;5044;48.652;9.250;2022-09-12T12:14:35;0.80;;;0.80;;
10009;SDS011;5044;48.652;9.250;2022-09-12T12:17:14;0.90;;;0.77;;
10009;SDS011;5044;48.652;9.250;2022-09-12T12:19:42;1.30;;;0.70;;
10009;SDS011;5044;48.652;9.250;2022-09-12T12:22:14;2.35;;;0.80;;
10009;SDS011;5044;48.652;9.250;2022-09-12T12:25:20;1.85;;;0.70;;
10009;SDS011;5044;48.652;9.250;2022-09-12T12:27:53;0.93;;;0.60;;
10009;SDS011;5044;48.652;9.250;2022-09-12T12:36:37;0.68;;;0.60;;
10009;SDS011;5044;48.652;9.250;2022-09-12T12:51:38;0.77;;;0.50;;
10009;SDS011;5044;48.652;9.250;2022-09-12T12:54:33;2.42;;;0.70;;
10009;SDS011;5044;48.652;9.250;2022-09-12T12:57:19;1.17;;;0.52;;
10009;SDS011;5044;48.652;9.250;2022-09-12T12:59:54;1.05;;;0.77;;
10009;SDS011;5044;48.652;9.250;2022-09-12T13:02:26;2.92;;;0.75;;
10009;SDS011;5044;48.652;9.250;2022-09-12T13:04:57;1.48;;;0.68;;
10009;SDS011;5044;48.652;9.250;2022-09-12T13:09:56;0.73;;;0.65;;
10009;SDS011;5044;48.652;9.250;2022-09-12T13:12:25;1.17;;;0.60;;
10009;SDS011;5044;48.652;9.250;2022-09-12T13:14:54;1.02;;;0.73;;
10009;SDS011;5044;48.652;9.250;2022-09-12T13:17:30;1.17;;;0.82;;
10009;SDS011;5044;48.652;9.250;2022-09-12T13:20:03;1.23;;;0.80;;
10009;SDS011;5044;48.652;9.250;2022-09-12T13:22:40;2.55;;;1.02;;
10009;SDS011;5044;48.652;9.250;2022-09-12T13:25:17;1.77;;;0.60;;
10009;SDS011;5044;48.652;9.250;2022-09-12T13:27:55;1.20;;;0.68;;
10009;SDS011;5044;48.652;9.250;2022-09-12T13:30:23;1.42;;;0.90;;
10009;SDS011;5044;48.652;9.250;2022-09-12T13:32:51;0.70;;;0.60;;
10009;SDS011;5044;48.652;9.250;2022-09-12T13:35:20;1.25;;;1.00;;
10009;SDS011;5044;48.652;9.250;2022-09-12T13:37:58;1.38;;;0.98;;
10009;SDS011;5044;48.652;9.250;2022-09-12T13:40:35;0.95;;;0.70;;
10009;SDS011;5044;48.652;9.250;2022-09-12T13:43:24;2.60;;;0.80;;
10009;SDS011;5044;48.652;9.250;2022-09-12T13:46:02;0.90;;;0.73;;
10009;SDS011;5044;48.652;9.250;2022-09-12T13:48:29;1.00;;;0.80;;
10009;SDS011;5044;48.652;9.250;2022-09-12T13:50:58;1.30;;;0.95;;
10009;SDS011;5044;48.652;9.250;2022-09-12T13:53:28;1.10;;;0.70;;
10009;SDS011;5044;48.652;9.250;2022-09-12T13:56:01;1.38;;;0.88;;
10009;SDS011;5044;48.652;9.250;2022-09-12T13:58:28;1.15;;;0.88;;
10009;SDS011;5044;48.652;9.250;2022-09-12T14:01:01;1.05;;;0.98;;
10009;SDS011;5044;48.652;9.250;2022-09-12T14:03:31;1.58;;;0.73;;
10009;SDS011;5044;48.652;9.250;2022-09-12T14:06:18;1.00;;;0.90;;
10009;SDS011;5044;48.652;9.250;2022-09-12T14:08:49;4.90;;;0.90;;
10009;SDS011;5044;48.652;9.250;2022-09-12T14:11:21;1.02;;;0.93;;
10009;SDS011;5044;48.652;9.250;2022-09-12T14:13:51;1.42;;;0.80;;
10009;SDS011;5044;48.652;9.250;2022-09-12T14:16:19;1.60;;;0.90;;
10009;SDS011;5044;48.652;9.250;2022-09-12T14:18:49;1.45;;;1.35;;
10009;SDS011;5044;48.652;9.250;2022-09-12T14:21:23;3.10;;;1.33;;
10009;SDS011;5044;48.652;9.250;2022-09-12T14:23:58;1.00;;;0.90;;
10009;SDS011;5044;48.652;9.250;2022-09-12T14:26:26;2.03;;;1.10;;
10009;SDS011;5044;48.652;9.250;2022-09-12T14:28:57;0.93;;;0.80;;
10009;SDS011;5044;48.652;9.250;2022-09-12T14:31:27;2.47;;;0.80;;
10009;SDS011;5044;48.652;9.250;2022-09-12T14:34:07;0.95;;;0.85;;
10009;SDS011;5044;48.652;9.250;2022-09-12T14:36:38;1.17;;;0.90;;
10009;SDS011;5044;48.652;9.250;2022-09-12T14:39:14;1.33;;;1.23;;
10009;SDS011;5044;48.652;9.250;2022-09-12T14:41:45;1.17;;;0.80;;
10009;SDS011;5044;48.652;9.250;2022-09-12T14:44:15;1.02;;;0.80;;
10009;SDS011;5044;48.652;9.250;2022-09-12T14:46:44;1.27;;;0.98;;
10009;SDS011;5044;48.652;9.250;2022-09-12T14:49:13;2.85;;;1.08;;
10009;SDS011;5044;48.652;9.250;2022-09-12T14:51:47;1.42;;;0.90;;
10009;SDS011;5044;48.652;9.250;2022-09-12T14:54:38;1.20;;;0.80;;
10009;SDS011;5044;48.652;9.250;2022-09-12T15:00:04;1.20;;;0.70;;
10009;SDS011;5044;48.652;9.250;2022-09-12T15:02:46;1.27;;;0.90;;
10009;SDS011;5044;48.652;9.250;2022-09-12T15:05:18;0.90;;;0.80;;
10009;SDS011;5044;48.652;9.250;2022-09-12T15:10:39;2.58;;;0.77;;
10009;SDS011;5044;48.652;9.250;2022-09-12T15:13:13;5.70;;;1.08;;
10009;SDS011;5044;48.652;9.250;2022-09-12T15:15:43;4.97;;;0.85;;
10009;SDS011;5044;48.652;9.250;2022-09-12T15:18:11;2.50;;;0.90;;
10009;SDS011;5044;48.652;9.250;2022-09-12T15:20:39;0.90;;;0.60;;
10009;SDS011;5044;48.652;9.250;2022-09-12T15:23:16;3.13;;;0.70;;
10009;SDS011;5044;48.652;9.250;2022-09-12T15:25:45;1.15;;;0.52;;
10009;SDS011;5044;48.652;9.250;2022-09-12T15:28:17;0.77;;;0.60;;
10009;SDS011;5044;48.652;9.250;2022-09-12T15:30:46;0.70;;;0.60;;
10009;SDS011;5044;48.652;9.250;2022-09-12T15:33:15;1.85;;;0.75;;
10009;SDS011;5044;48.652;9.250;2022-09-12T15:35:42;1.02;;;0.68;;
10009;SDS011;5044;48.652;9.250;2022-09-12T15:38:10;0.70;;;0.70;;
10009;SDS011;5044;48.652;9.250;2022-09-12T15:40:38;1.40;;;0.80;;
10009;SDS011;5044;48.652;9.250;2022-09-12T15:43:05;1.08;;;0.82;;
10009;SDS011;5044;48.652;9.250;2022-09-12T15:45:33;0.90;;;0.68;;
10009;SDS011;5044;48.652;9.250;2022-09-12T15:48:00;1.00;;;0.73;;
10009;SDS011;5044;48.652;9.250;2022-09-12T15:50:28;0.85;;;0.65;;
10009;SDS011;5044;48.652;9.250;2022-09-12T15:52:55;1.08;;;0.60;;
10009;SDS011;5044;48.652;9.250;2022-09-12T15:55:24;1.02;;;0.85;;
10009;SDS011;5044;48.652;9.250;2022-09-12T15:57:55;0.70;;;0.70;;
10009;SDS011;5044;48.652;9.250;2022-09-12T16:00:22;0.70;;;0.70;;
10009;SDS011;5044;48.652;9.250;2022-09-12T16:02:50;0.70;;;0.70;;
10009;SDS011;5044;48.652;9.250;2022-09-12T16:05:19;2.28;;;0.68;;
10009;SDS011;5044;48.652;9.250;2022-09-12T16:07:47;0.73;;;0.73;;
10009;SDS011;5044;48.652;9.250;2022-09-12T16:10:18;0.80;;;0.80;;